Roanoke Regional Airport Airport (ROA)

 

Airport Diagram
Current Weather/Forecast (LIFR Conditions)
METAR KROA 220702Z 13008KT 2SM BR OVC002 14/14 A3001 RMK AO2 SFC VIS 5 T01440139
TAF KROA 220540Z 2206/2306 14006KT 6SM -DZ BR SCT009 OVC015 TEMPO 2210/2214 4SM -SHRA BKN009 FM221400 VRB04KT 2SM SHRA BR OVC006 TEMPO 2214/2218 1SM +SHRA BR OVC012 FM221800 VRB03KT P6SM -SHRA BKN014 OVC060 FM222000 27007KT P6SM SCT060 BKN250 FM230000 30009KT P6SM SKC

All Charts
General
Chart Name Download
AIRPORT DIAGRAM
TAKEOFF MINIMUMS
ALTERNATE MINIMUMS
HOT SPOT

Departures
Chart Name Download
BUFIY THREE (RNAV)
DIXXY EIGHT
HOKEE THREE
MONAT THREE (RNAV)
SCUTA THREE (RNAV)

Approaches
Chart Name Download
ILS OR LOC RWY 34
RNAV (RNP) Z RWY 06
RNAV (RNP) Z RWY 24
RNAV (RNP) Z RWY 34
RNAV (GPS) Y RWY 06
RNAV (GPS) Y RWY 24
RNAV (GPS) Y RWY 34
LDA Y RWY 06
LDA Z RWY 06
VOR/DME-A


Inbound Traffic (Arrivals)

No inbound traffic.


Outbound Traffic (Departures)

No outbound traffic.